createdAt,value
2019-02-10T00:00:08.722Z,15.32
2019-02-10T00:02:38.155Z,8.25
2019-02-10T00:05:07.695Z,6.55
2019-02-10T00:07:37.348Z,15.55
2019-02-10T00:10:06.785Z,6.85
2019-02-10T00:12:36.219Z,13.78
2019-02-10T00:15:06.046Z,13.65
2019-02-10T00:17:35.509Z,12.95
2019-02-10T00:20:05.041Z,14.43
2019-02-10T00:22:34.685Z,13.03
2019-02-10T00:25:04.157Z,11.00
2019-02-10T00:27:33.658Z,12.18
2019-02-10T00:30:03.166Z,10.98
2019-02-10T00:32:32.598Z,9.28
2019-02-10T00:35:02.041Z,10.53
2019-02-10T00:37:31.486Z,10.35
2019-02-10T00:40:00.965Z,9.43
2019-02-10T00:42:30.440Z,15.53
2019-02-10T00:44:59.879Z,10.93
2019-02-10T00:47:29.314Z,9.75
2019-02-10T00:49:58.766Z,9.03
2019-02-10T00:52:28.200Z,13.95
2019-02-10T00:54:57.635Z,7.50
2019-02-10T00:57:27.078Z,11.08
2019-02-10T00:59:56.520Z,9.73
2019-02-10T01:02:25.948Z,10.68
2019-02-10T01:04:55.442Z,11.90
2019-02-10T01:07:24.892Z,6.17
2019-02-10T01:09:54.637Z,12.40
2019-02-10T01:12:24.081Z,10.32
2019-02-10T01:14:53.755Z,9.20
2019-02-10T01:17:23.394Z,12.95
2019-02-10T01:19:52.829Z,7.97
2019-02-10T01:22:22.246Z,9.93
2019-02-10T01:24:51.687Z,6.08
2019-02-10T01:27:21.451Z,7.33
2019-02-10T01:29:51.083Z,11.75
2019-02-10T01:32:20.524Z,14.40
2019-02-10T01:34:50.283Z,7.08
2019-02-10T01:37:19.930Z,6.25
2019-02-10T01:39:49.514Z,6.25
2019-02-10T01:42:19.002Z,14.95
2019-02-10T01:44:48.458Z,7.50
2019-02-10T01:47:17.904Z,7.40
2019-02-10T01:49:47.338Z,5.67
2019-02-10T01:52:16.774Z,8.90
2019-02-10T01:54:46.525Z,7.42
2019-02-10T01:57:16.298Z,8.60
2019-02-10T01:59:45.930Z,8.13
2019-02-10T02:02:15.527Z,7.12
2019-02-10T02:04:44.956Z,8.88
2019-02-10T02:07:14.459Z,9.98
2019-02-10T02:09:44.507Z,12.68
2019-02-10T02:12:14.071Z,8.98
2019-02-10T02:14:43.544Z,6.05
2019-02-10T02:17:13.006Z,9.43
2019-02-10T02:19:42.428Z,6.22
2019-02-10T02:22:11.902Z,8.43
2019-02-10T02:24:41.341Z,9.40
2019-02-10T02:27:10.794Z,8.00
2019-02-10T02:29:40.261Z,7.75
2019-02-10T02:32:09.732Z,10.70
2019-02-10T02:34:39.370Z,9.08
2019-02-10T02:37:08.804Z,10.23
2019-02-10T02:39:38.231Z,16.90
2019-02-10T02:42:07.763Z,7.28
2019-02-10T02:44:37.583Z,11.20
2019-02-10T02:47:07.050Z,6.72
2019-02-10T02:49:36.447Z,12.53
2019-02-10T02:52:05.906Z,5.92
2019-02-10T02:54:35.693Z,12.85
2019-02-10T02:57:05.353Z,7.70
2019-02-10T02:59:35.150Z,9.88
2019-02-10T03:02:04.596Z,8.70
2019-02-10T03:04:34.062Z,10.10
2019-02-10T03:07:03.506Z,8.93
2019-02-10T03:09:33.091Z,12.37
2019-02-10T03:12:02.670Z,6.40
2019-02-10T03:14:32.109Z,9.45
2019-02-10T03:17:01.555Z,10.05
2019-02-10T03:19:30.992Z,8.40
2019-02-10T03:22:00.428Z,13.18
2019-02-10T03:24:29.877Z,6.53
2019-02-10T03:26:59.642Z,8.58
2019-02-10T03:29:29.704Z,9.00
2019-02-10T03:31:59.177Z,11.48
2019-02-10T03:34:28.606Z,9.45
2019-02-10T03:36:58.045Z,15.35
2019-02-10T03:39:39.754Z,11.33
2019-02-10T03:42:09.344Z,10.95
2019-02-10T03:44:38.819Z,6.08
2019-02-10T03:47:08.254Z,10.00
2019-02-10T03:49:37.758Z,10.20
2019-02-10T03:52:07.126Z,8.15
2019-02-10T03:54:36.619Z,10.20
2019-02-10T03:57:06.042Z,14.07
2019-02-10T03:59:35.947Z,15.63
2019-02-10T04:02:05.371Z,11.22
2019-02-10T04:04:34.832Z,8.35
2019-02-10T04:07:04.301Z,8.68
2019-02-10T04:09:33.774Z,17.60
2019-02-10T04:12:03.202Z,14.43
2019-02-10T04:14:33.391Z,8.60
2019-02-10T04:17:03.310Z,5.28
2019-02-10T04:19:33.121Z,11.60
2019-02-10T04:22:02.931Z,13.98
2019-02-10T04:24:32.791Z,13.05
2019-02-10T04:27:02.249Z,8.80
2019-02-10T04:29:32.051Z,8.70
2019-02-10T04:32:01.478Z,10.53
2019-02-10T04:34:30.939Z,16.73
2019-02-10T04:37:00.382Z,10.93
2019-02-10T04:39:30.019Z,6.35
2019-02-10T04:41:59.433Z,9.98
2019-02-10T04:44:28.909Z,14.93
2019-02-10T04:46:58.552Z,8.68
2019-02-10T04:49:28.146Z,9.68
2019-02-10T04:51:57.734Z,7.90
2019-02-10T04:54:28.056Z,11.85
2019-02-10T04:56:57.515Z,14.68
2019-02-10T04:59:27.163Z,10.08
2019-02-10T05:01:56.803Z,7.33
2019-02-10T05:04:26.255Z,6.97
2019-02-10T05:06:55.699Z,7.62
2019-02-10T05:09:25.466Z,8.88
2019-02-10T05:11:55.143Z,11.75
2019-02-10T05:14:24.803Z,7.72
2019-02-10T05:16:54.699Z,7.80
2019-02-10T05:19:24.147Z,9.20
2019-02-10T05:21:53.569Z,9.23
2019-02-10T05:24:23.016Z,6.33
2019-02-10T05:26:52.437Z,6.70
2019-02-10T05:29:21.872Z,9.53
2019-02-10T05:31:51.301Z,12.82
2019-02-10T05:34:20.772Z,15.53
2019-02-10T05:36:50.205Z,14.65
2019-02-10T05:39:19.638Z,8.48
2019-02-10T05:41:49.065Z,7.37
2019-02-10T05:44:18.952Z,11.57
2019-02-10T05:46:48.520Z,12.13
2019-02-10T05:49:18.324Z,6.70
2019-02-10T05:51:47.775Z,15.43
2019-02-10T05:54:17.637Z,17.50
2019-02-10T05:56:47.057Z,18.37
2019-02-10T05:59:16.544Z,52.90
2019-02-10T06:02:00.652Z,14.55
2019-02-10T06:04:30.789Z,16.65
2019-02-10T06:07:02.828Z,11.12
2019-02-10T06:09:32.307Z,13.75
2019-02-10T06:12:01.810Z,10.80
2019-02-10T06:14:31.189Z,12.63
2019-02-10T06:17:00.652Z,13.50
2019-02-10T06:19:30.079Z,5.40
2019-02-10T06:21:59.533Z,6.80
2019-02-10T06:24:28.991Z,18.92
2019-02-10T06:26:58.443Z,9.33
2019-02-10T06:29:28.213Z,10.28
2019-02-10T06:31:57.685Z,13.00
2019-02-10T06:34:27.105Z,14.15
2019-02-10T06:36:56.561Z,9.80
2019-02-10T06:39:25.989Z,6.85
2019-02-10T06:41:56.013Z,13.43
2019-02-10T06:44:25.488Z,10.82
2019-02-10T06:46:54.928Z,11.28
2019-02-10T06:49:24.381Z,18.45
2019-02-10T06:51:53.990Z,12.93
2019-02-10T06:54:23.785Z,15.63
2019-02-10T06:56:53.558Z,12.03
2019-02-10T06:59:44.095Z,11.68
2019-02-10T07:02:47.502Z,11.43
2019-02-10T07:05:17.158Z,11.53
2019-02-10T07:07:46.859Z,19.45
2019-02-10T07:10:16.339Z,13.38
2019-02-10T07:12:50.130Z,11.43
2019-02-10T07:15:55.734Z,14.90
2019-02-10T07:19:02.207Z,16.02
2019-02-10T07:21:35.369Z,17.00
2019-02-10T07:24:59.264Z,16.93
2019-02-10T07:27:32.858Z,18.32
2019-02-10T07:30:38.583Z,15.35
2019-02-10T07:33:16.306Z,14.20
2019-02-10T07:36:16.675Z,8.68
2019-02-10T07:39:32.794Z,7.42
2019-02-10T07:42:30.285Z,14.40
2019-02-10T07:45:41.175Z,15.18
2019-02-10T07:48:28.509Z,8.35
2019-02-10T07:51:18.852Z,7.03
2019-02-10T07:54:06.890Z,11.83
2019-02-10T07:57:17.822Z,8.25
2019-02-10T08:00:44.364Z,8.28
2019-02-10T08:03:46.110Z,7.80
2019-02-10T08:06:46.511Z,8.73
2019-02-10T08:09:51.920Z,16.48
2019-02-10T08:13:20.371Z,8.23
2019-02-10T08:16:41.152Z,13.95
2019-02-10T08:19:42.424Z,11.70
2019-02-10T08:23:01.002Z,7.28
2019-02-10T08:26:11.305Z,6.78
2019-02-10T08:29:19.804Z,10.93
2019-02-10T08:32:32.720Z,15.10
2019-02-10T08:35:56.067Z,6.08
2019-02-10T08:38:54.702Z,10.95
2019-02-10T08:42:07.708Z,13.53
2019-02-10T08:45:14.362Z,9.28
2019-02-10T08:48:37.462Z,13.28
2019-02-10T08:51:58.705Z,10.23
2019-02-10T08:54:28.486Z,17.05
2019-02-10T08:56:57.921Z,13.35
2019-02-10T08:59:27.395Z,10.88
2019-02-10T09:01:56.835Z,10.72
2019-02-10T09:04:26.280Z,10.38
2019-02-10T09:06:55.743Z,6.75
2019-02-10T09:09:25.263Z,11.50
2019-02-10T09:11:55.309Z,12.50
2019-02-10T09:14:26.197Z,12.78
2019-02-10T09:16:55.797Z,5.70
2019-02-10T09:19:25.758Z,9.05
2019-02-10T09:21:55.345Z,8.10
2019-02-10T09:24:24.867Z,10.08
2019-02-10T09:26:54.620Z,9.78
2019-02-10T09:29:24.040Z,12.63
2019-02-10T09:31:53.664Z,11.12
2019-02-10T09:34:23.648Z,7.28
2019-02-10T09:36:53.088Z,11.22
2019-02-10T09:39:22.527Z,11.33
2019-02-10T09:41:51.973Z,9.40
2019-02-10T09:44:21.610Z,9.33
2019-02-10T09:46:51.111Z,6.47
2019-02-10T09:49:20.553Z,16.80
2019-02-10T09:51:50.042Z,6.55
2019-02-10T09:54:20.009Z,8.15
2019-02-10T09:56:49.446Z,8.33
2019-02-10T09:59:19.212Z,7.85
2019-02-10T10:01:49.523Z,7.17
2019-02-10T10:04:19.142Z,14.98
2019-02-10T10:06:48.613Z,7.30
2019-02-10T10:09:19.692Z,11.10
2019-02-10T10:11:49.211Z,5.70
2019-02-10T10:14:19.742Z,11.03
2019-02-10T10:16:49.556Z,9.15
2019-02-10T10:19:19.119Z,6.53
2019-02-10T10:21:48.613Z,14.68
2019-02-10T10:24:18.045Z,8.53
2019-02-10T10:26:47.712Z,9.38
2019-02-10T10:29:18.028Z,3.60
2019-02-10T10:31:47.524Z,9.90
2019-02-10T10:34:17.059Z,10.93
2019-02-10T10:36:47.014Z,7.92
2019-02-10T10:39:16.784Z,8.80
2019-02-10T10:41:46.595Z,9.00
2019-02-10T10:44:16.046Z,7.53
2019-02-10T10:46:45.541Z,7.67
2019-02-10T10:49:15.531Z,10.18
2019-02-10T10:51:44.995Z,3.90
2019-02-10T10:54:14.460Z,13.22
2019-02-10T10:56:43.919Z,8.85
2019-02-10T10:59:13.429Z,11.08
2019-02-10T11:01:42.852Z,10.05
2019-02-10T11:07:41.191Z,10.35
2019-02-10T11:10:10.839Z,6.58
2019-02-10T11:12:40.354Z,7.42
2019-02-10T11:15:10.657Z,12.90
2019-02-10T11:17:40.642Z,6.28
2019-02-10T11:20:10.487Z,12.00
2019-02-10T11:22:39.929Z,10.38
2019-02-10T11:25:09.661Z,7.95
2019-02-10T11:27:39.544Z,14.85
2019-02-10T11:30:10.455Z,9.48
2019-02-10T11:32:39.858Z,8.18
2019-02-10T11:35:09.526Z,9.50
2019-02-10T11:37:39.051Z,12.45
2019-02-10T11:40:08.616Z,8.75
2019-02-10T11:42:38.040Z,8.43
2019-02-10T11:45:08.775Z,10.35
2019-02-10T11:47:38.324Z,10.30
2019-02-10T11:50:08.749Z,11.28
2019-02-10T11:52:38.214Z,13.70
2019-02-10T11:55:07.869Z,7.50
2019-02-10T11:57:37.334Z,15.63
2019-02-10T12:00:07.965Z,12.07
2019-02-10T12:02:38.247Z,10.30
2019-02-10T12:05:09.327Z,13.88
2019-02-10T12:07:38.751Z,8.58
2019-02-10T12:10:08.581Z,7.72
2019-02-10T12:12:38.105Z,11.12
2019-02-10T12:15:08.349Z,12.47
2019-02-10T12:17:37.757Z,10.65
2019-02-10T12:20:07.943Z,12.53
2019-02-10T12:22:37.383Z,7.50
2019-02-10T12:25:06.998Z,8.68
2019-02-10T12:27:36.409Z,9.53
2019-02-10T12:30:07.117Z,8.00
2019-02-10T12:32:36.540Z,10.03
2019-02-10T12:35:06.047Z,9.33
2019-02-10T12:37:35.539Z,5.55
2019-02-10T12:40:05.461Z,8.85
2019-02-10T12:42:34.902Z,5.83
2019-02-10T12:45:05.059Z,8.63
2019-02-10T12:47:34.542Z,7.65
2019-02-10T12:50:04.078Z,10.43
2019-02-10T12:52:33.518Z,8.60
2019-02-10T12:55:03.066Z,10.80
2019-02-10T12:57:32.671Z,7.58
2019-02-10T13:00:02.664Z,8.48
2019-02-10T13:02:32.531Z,16.07
2019-02-10T13:05:01.953Z,12.33
2019-02-10T13:07:31.543Z,10.00
2019-02-10T13:10:08.091Z,11.55
2019-02-10T13:12:32.144Z,9.78
2019-02-10T13:15:01.573Z,14.25
2019-02-10T13:17:31.153Z,10.10
2019-02-10T13:20:00.630Z,8.88
2019-02-10T13:22:30.505Z,11.55
2019-02-10T13:24:59.962Z,9.58
2019-02-10T13:27:29.467Z,8.95
2019-02-10T13:29:58.914Z,9.60
2019-02-10T13:32:28.357Z,10.40
2019-02-10T13:34:57.836Z,13.43
2019-02-10T13:37:27.321Z,17.00
2019-02-10T13:39:56.704Z,9.65
2019-02-10T13:42:26.119Z,10.08
2019-02-10T13:44:56.280Z,13.68
2019-02-10T13:47:25.831Z,17.92
2019-02-10T13:49:55.305Z,11.03
2019-02-10T13:52:25.117Z,10.50
2019-02-10T13:54:54.653Z,15.10
2019-02-10T13:57:24.102Z,10.32
2019-02-10T13:59:53.624Z,12.50
2019-02-10T14:02:23.457Z,14.25
2019-02-10T14:04:52.877Z,12.63
2019-02-10T14:07:22.283Z,14.25
2019-02-10T14:09:51.702Z,13.22
2019-02-10T14:12:21.175Z,11.25
2019-02-10T14:14:50.596Z,11.78
2019-02-10T14:17:20.072Z,13.45
2019-02-10T14:19:49.598Z,19.37
2019-02-10T14:22:19.447Z,13.95
2019-02-10T14:24:51.313Z,14.13
2019-02-10T14:27:21.201Z,13.85
2019-02-10T14:29:50.617Z,14.58
2019-02-10T14:32:20.085Z,14.47
2019-02-10T14:34:49.543Z,17.35
2019-02-10T14:37:18.958Z,17.15
2019-02-10T14:39:48.408Z,20.00
2019-02-10T14:42:17.844Z,21.02
2019-02-10T14:44:47.249Z,20.32
2019-02-10T14:47:16.703Z,23.55
2019-02-10T14:49:46.119Z,22.32
2019-02-10T14:52:15.547Z,21.57
2019-02-10T14:54:44.980Z,21.30
2019-02-10T14:57:14.686Z,25.95
2019-02-10T14:59:44.114Z,23.07
2019-02-10T15:02:13.587Z,24.40
2019-02-10T15:04:43.411Z,27.77
2019-02-10T15:07:12.836Z,26.27
2019-02-10T15:09:42.266Z,33.45
2019-02-10T15:12:11.709Z,28.60
2019-02-10T15:14:42.167Z,36.53
2019-02-10T15:17:11.893Z,30.77
2019-02-10T15:19:41.386Z,30.77
2019-02-10T15:22:10.799Z,32.05
2019-02-10T15:24:40.241Z,30.50
2019-02-10T15:27:09.801Z,21.85
2019-02-10T15:29:39.420Z,19.92
2019-02-10T15:32:16.486Z,24.37
2019-02-10T15:34:40.337Z,24.70
2019-02-10T15:37:10.199Z,22.50
2019-02-10T15:39:40.128Z,24.52
2019-02-10T15:42:10.347Z,24.52
2019-02-10T15:44:39.766Z,29.52
2019-02-10T15:47:09.574Z,27.02
2019-02-10T15:49:39.471Z,25.80
2019-02-10T15:52:08.944Z,30.55
2019-02-10T15:54:38.394Z,25.77
2019-02-10T15:57:07.809Z,30.68
2019-02-10T15:59:37.368Z,34.20
2019-02-10T16:02:06.906Z,33.95
2019-02-10T16:04:36.767Z,35.10
2019-02-10T16:07:06.206Z,34.23
2019-02-10T16:09:37.271Z,30.57
2019-02-10T16:12:06.875Z,36.53
2019-02-10T16:14:36.450Z,39.55
2019-02-10T16:17:05.882Z,39.13
2019-02-10T16:19:35.501Z,41.08
2019-02-10T16:22:04.993Z,40.63
2019-02-10T16:24:34.512Z,41.50
2019-02-10T16:27:04.008Z,39.40
2019-02-10T16:29:33.511Z,46.98
2019-02-10T16:32:03.341Z,41.40
2019-02-10T16:34:32.804Z,42.25
2019-02-10T16:37:02.293Z,45.20
2019-02-10T16:39:31.812Z,44.88
2019-02-10T16:42:01.581Z,43.42
2019-02-10T16:44:31.016Z,41.80
2019-02-10T16:47:00.492Z,44.15
2019-02-10T16:49:30.025Z,40.48
2019-02-10T16:52:18.535Z,40.45
2019-02-10T16:54:48.023Z,38.08
2019-02-10T16:57:17.449Z,40.20
2019-02-10T16:59:46.912Z,31.57
2019-02-10T17:02:16.743Z,32.83
2019-02-10T17:04:46.743Z,39.85
2019-02-10T17:07:16.169Z,38.88
2019-02-10T17:09:45.993Z,34.95
2019-02-10T17:12:17.847Z,35.13
2019-02-10T17:14:47.669Z,36.38
2019-02-10T17:17:17.161Z,43.63
2019-02-10T17:19:46.671Z,37.80
2019-02-10T17:22:16.099Z,38.15
2019-02-10T17:24:45.611Z,35.75
2019-02-10T17:27:16.580Z,38.45
2019-02-10T17:29:46.510Z,45.52
2019-02-10T17:32:16.667Z,46.55
2019-02-10T17:34:46.596Z,49.45
2019-02-10T17:37:16.173Z,46.08
2019-02-10T17:39:45.673Z,48.30
2019-02-10T17:42:15.103Z,54.30
2019-02-10T17:44:44.678Z,51.28
2019-02-10T17:47:14.258Z,56.75
2019-02-10T17:49:44.425Z,55.85
2019-02-10T17:52:14.121Z,51.00
2019-02-10T17:54:43.611Z,58.28
2019-02-10T17:57:13.201Z,53.60
2019-02-10T17:59:43.423Z,57.90
2019-02-10T18:02:13.527Z,52.85
2019-02-10T18:04:42.960Z,55.90
2019-02-10T18:07:12.401Z,57.35
2019-02-10T18:09:42.521Z,55.95
2019-02-10T18:12:11.945Z,56.30
2019-02-10T18:15:06.862Z,54.53
2019-02-10T18:18:04.282Z,55.98
2019-02-10T18:20:52.965Z,52.35
2019-02-10T18:23:34.880Z,48.63
2019-02-10T18:26:23.321Z,52.60
2019-02-10T18:28:59.741Z,48.17
2019-02-10T18:31:42.231Z,51.80
2019-02-10T18:34:43.026Z,48.65
2019-02-10T18:37:31.443Z,53.68
2019-02-10T18:40:11.812Z,63.90
2019-02-10T18:43:07.820Z,52.45
2019-02-10T18:45:44.870Z,56.95
2019-02-10T18:48:33.615Z,62.35
2019-02-10T18:51:11.129Z,59.48
2019-02-10T18:53:49.820Z,59.83
2019-02-10T18:56:38.256Z,61.83
2019-02-10T18:59:25.770Z,62.53
2019-02-10T19:02:13.286Z,72.30
2019-02-10T19:05:09.763Z,72.30
2019-02-10T19:07:45.216Z,72.08
2019-02-10T19:10:46.196Z,77.82
2019-02-10T19:13:22.377Z,67.55
2019-02-10T19:16:09.359Z,68.87
2019-02-10T19:18:49.443Z,67.25
2019-02-10T19:21:37.537Z,77.05
2019-02-10T19:24:29.867Z,71.00
2019-02-10T19:27:21.692Z,67.17
2019-02-10T19:30:10.084Z,79.05
2019-02-10T19:32:59.735Z,71.12
2019-02-10T19:35:54.225Z,76.30
2019-02-10T19:38:51.033Z,66.60
2019-02-10T19:41:33.607Z,71.50
2019-02-10T19:44:20.661Z,65.97
2019-02-10T19:47:15.219Z,68.90
2019-02-10T19:50:13.261Z,66.07
2019-02-10T19:53:00.731Z,68.42
2019-02-10T19:55:45.797Z,69.62
2019-02-10T19:58:34.042Z,65.52
2019-02-10T20:01:34.649Z,66.75
2019-02-10T20:04:11.111Z,67.60
2019-02-10T20:06:55.994Z,65.08
2019-02-10T20:10:02.311Z,68.90
2019-02-10T20:12:39.409Z,64.37
2019-02-10T20:15:18.317Z,68.47
2019-02-10T20:18:12.597Z,72.67
2019-02-10T20:21:13.720Z,68.90
2019-02-10T20:24:13.998Z,66.57
2019-02-10T20:26:54.184Z,66.05
2019-02-10T20:29:33.411Z,69.35
2019-02-10T20:32:24.790Z,66.17
2019-02-10T20:35:09.254Z,73.02
2019-02-10T20:37:56.809Z,66.17
2019-02-10T20:40:45.168Z,68.92
2019-02-10T20:43:28.457Z,65.40
2019-02-10T20:46:32.197Z,60.28
2019-02-10T20:49:20.614Z,66.97
2019-02-10T20:52:07.695Z,62.83
2019-02-10T20:54:41.741Z,64.17
2019-02-10T20:57:30.183Z,68.37
2019-02-10T21:00:18.714Z,64.22
2019-02-10T21:03:07.055Z,63.55
2019-02-10T21:05:55.443Z,55.38
2019-02-10T21:08:42.703Z,53.83
2019-02-10T21:11:34.088Z,45.33
2019-02-10T21:14:28.920Z,47.55
2019-02-10T21:17:16.202Z,43.00
2019-02-10T21:20:10.629Z,43.23
2019-02-10T21:23:14.123Z,42.45
2019-02-10T21:26:06.309Z,42.15
2019-02-10T21:28:53.405Z,41.60
2019-02-10T21:31:36.815Z,40.12
2019-02-10T21:34:25.161Z,35.75
2019-02-10T21:37:16.310Z,39.20
2019-02-10T21:40:09.785Z,39.40
2019-02-10T21:42:51.192Z,37.33
2019-02-10T21:45:48.882Z,38.17
2019-02-10T21:48:41.188Z,38.08
2019-02-10T21:51:11.177Z,36.55
2019-02-10T21:53:40.622Z,38.08
2019-02-10T21:56:10.017Z,35.33
2019-02-10T21:58:39.504Z,37.23
2019-02-10T22:01:08.937Z,41.80
2019-02-10T22:03:38.359Z,34.20
2019-02-10T22:06:07.853Z,39.83
2019-02-10T22:08:37.320Z,36.42
2019-02-10T22:11:06.871Z,35.23
2019-02-10T22:13:36.738Z,36.08
2019-02-10T22:16:06.168Z,37.88
2019-02-10T22:18:35.691Z,33.78
2019-02-10T22:21:05.125Z,41.00
2019-02-10T22:23:34.592Z,35.35
2019-02-10T22:26:04.063Z,36.68
2019-02-10T22:28:33.565Z,31.90
2019-02-10T22:31:03.433Z,37.78
2019-02-10T22:33:32.848Z,33.60
2019-02-10T22:36:02.584Z,33.42
2019-02-10T22:38:32.031Z,34.85
2019-02-10T22:41:01.488Z,34.45
2019-02-10T22:43:30.929Z,36.70
2019-02-10T22:46:00.397Z,33.70
2019-02-10T22:48:29.971Z,33.38
2019-02-10T22:50:59.451Z,33.18
2019-02-10T22:53:29.248Z,39.70
2019-02-10T22:55:58.693Z,30.27
2019-02-10T22:58:28.123Z,32.08
2019-02-10T23:01:07.847Z,31.00
2019-02-10T23:03:37.535Z,34.20
2019-02-10T23:06:06.947Z,29.85
2019-02-10T23:08:36.381Z,37.88
2019-02-10T23:11:06.147Z,28.50
2019-02-10T23:13:35.644Z,29.42
2019-02-10T23:16:05.025Z,28.67
2019-02-10T23:18:34.494Z,27.82
2019-02-10T23:21:04.242Z,29.85
2019-02-10T23:23:33.675Z,29.25
2019-02-10T23:26:22.154Z,30.50
2019-02-10T23:28:51.569Z,28.83
2019-02-10T23:31:21.017Z,23.75
2019-02-10T23:33:50.430Z,20.77
2019-02-10T23:36:19.884Z,22.55
2019-02-10T23:38:49.347Z,20.32
2019-02-10T23:41:19.092Z,17.67
2019-02-10T23:43:48.523Z,15.83
2019-02-10T23:46:18.139Z,16.27
2019-02-10T23:48:47.562Z,16.10
2019-02-10T23:51:17.316Z,16.00
2019-02-10T23:53:46.746Z,15.00
2019-02-10T23:56:16.176Z,14.30
2019-02-10T23:58:45.601Z,12.03
